createdAt,value
2019-03-06T00:02:14.071Z,23.43
2019-03-06T00:04:47.362Z,25.37
2019-03-06T00:07:22.757Z,31.27
2019-03-06T00:09:55.291Z,27.00
2019-03-06T00:12:30.059Z,27.37
2019-03-06T00:15:04.683Z,30.10
2019-03-06T00:17:38.030Z,31.73
2019-03-06T00:20:11.747Z,30.00
2019-03-06T00:22:46.626Z,33.27
2019-03-06T00:25:20.010Z,31.60
2019-03-06T00:27:55.015Z,33.73
2019-03-06T00:30:28.227Z,29.33
2019-03-06T00:33:01.575Z,29.03
2019-03-06T00:35:34.850Z,31.65
2019-03-06T00:38:08.459Z,31.90
2019-03-06T00:40:42.162Z,31.77
2019-03-06T00:43:15.723Z,37.50
2019-03-06T00:45:48.941Z,36.95
2019-03-06T00:48:22.239Z,36.97
2019-03-06T00:50:55.760Z,39.50
2019-03-06T00:53:29.047Z,35.67
2019-03-06T00:56:02.301Z,39.00
2019-03-06T00:58:35.718Z,39.47
2019-03-06T01:01:09.670Z,36.23
2019-03-06T01:03:43.199Z,34.00
2019-03-06T01:06:16.555Z,35.13
2019-03-06T01:08:50.047Z,37.03
2019-03-06T01:11:23.501Z,39.70
2019-03-06T01:13:58.513Z,33.63
2019-03-06T01:16:31.819Z,33.45
2019-03-06T01:19:05.174Z,33.30
2019-03-06T01:21:38.435Z,31.20
2019-03-06T01:24:11.670Z,31.27
2019-03-06T01:26:45.088Z,53.43
2019-03-06T01:29:18.371Z,30.77
2019-03-06T01:31:51.777Z,31.77
2019-03-06T01:34:25.022Z,30.80
2019-03-06T01:36:58.432Z,27.63
2019-03-06T01:39:33.136Z,29.30
2019-03-06T01:42:06.533Z,33.93
2019-03-06T01:44:41.778Z,29.35
2019-03-06T01:47:17.769Z,25.22
2019-03-06T01:49:51.975Z,24.65
2019-03-06T01:52:25.280Z,28.67
2019-03-06T01:54:58.524Z,25.47
2019-03-06T01:57:31.758Z,29.00
2019-03-06T02:00:05.378Z,27.27
2019-03-06T02:02:38.577Z,24.97
2019-03-06T02:05:13.791Z,21.83
2019-03-06T02:07:47.345Z,23.60
2019-03-06T02:10:20.708Z,22.43
2019-03-06T02:12:56.000Z,26.87
2019-03-06T02:15:29.546Z,28.03
2019-03-06T02:18:02.971Z,24.30
2019-03-06T02:20:36.291Z,30.00
2019-03-06T02:23:10.694Z,30.82
2019-03-06T02:25:43.990Z,29.33
2019-03-06T02:28:19.190Z,22.20
2019-03-06T02:30:52.750Z,33.33
2019-03-06T02:33:26.646Z,26.57
2019-03-06T02:35:59.875Z,23.30
2019-03-06T02:38:33.029Z,25.30
2019-03-06T02:41:06.715Z,22.50
2019-03-06T02:43:41.853Z,24.90
2019-03-06T02:46:15.344Z,28.80
2019-03-06T02:48:48.594Z,37.20
2019-03-06T02:51:21.899Z,25.40
2019-03-06T02:53:55.439Z,25.67
2019-03-06T02:56:30.147Z,27.90
2019-03-06T02:59:03.571Z,29.77
2019-03-06T03:01:36.879Z,26.47
2019-03-06T03:04:11.307Z,22.46
2019-03-06T03:06:44.711Z,27.80
2019-03-06T03:15:25.126Z,20.88
2019-03-06T03:17:58.529Z,19.90
2019-03-06T03:20:32.054Z,23.53
2019-03-06T03:23:06.662Z,28.40
2019-03-06T03:25:40.001Z,33.40
2019-03-06T03:28:13.202Z,27.47
2019-03-06T03:30:46.644Z,28.33
2019-03-06T03:33:20.133Z,24.30
2019-03-06T03:35:53.486Z,25.52
2019-03-06T03:38:26.744Z,22.53
2019-03-06T03:41:00.191Z,30.33
2019-03-06T03:43:33.489Z,29.00
2019-03-06T03:46:06.923Z,40.37
2019-03-06T03:48:40.570Z,37.27
2019-03-06T03:51:13.955Z,34.63
2019-03-06T03:53:47.438Z,20.25
2019-03-06T03:56:20.863Z,32.70
2019-03-06T03:58:54.447Z,49.57
2019-03-06T04:01:27.879Z,24.97
2019-03-06T04:04:01.193Z,27.47
2019-03-06T04:06:34.595Z,27.37
2019-03-06T04:09:08.688Z,43.30
2019-03-06T04:11:43.039Z,38.15
2019-03-06T04:14:16.697Z,44.87
2019-03-06T04:16:50.054Z,50.63
2019-03-06T04:19:23.325Z,26.27
2019-03-06T04:21:56.617Z,34.15
2019-03-06T04:24:30.190Z,32.53
2019-03-06T04:27:03.515Z,29.87
2019-03-06T04:29:36.801Z,24.60
2019-03-06T04:32:12.968Z,36.53
2019-03-06T04:34:45.991Z,26.70
2019-03-06T04:37:19.288Z,18.00
2019-03-06T04:39:52.812Z,30.57
2019-03-06T04:42:25.979Z,39.20
2019-03-06T04:44:59.358Z,21.77
2019-03-06T04:47:35.684Z,43.87
2019-03-06T04:50:11.247Z,35.90
2019-03-06T04:52:44.925Z,22.00
2019-03-06T04:55:19.622Z,23.88
2019-03-06T04:57:53.663Z,26.57
2019-03-06T05:00:28.776Z,43.50
2019-03-06T05:03:14.611Z,39.53
2019-03-06T05:05:47.608Z,37.13
2019-03-06T05:08:21.444Z,33.00
2019-03-06T05:10:55.287Z,23.25
2019-03-06T05:13:32.137Z,26.37
2019-03-06T05:16:05.546Z,38.53
2019-03-06T05:18:40.485Z,35.97
2019-03-06T05:21:15.006Z,41.75
2019-03-06T05:23:48.332Z,35.68
2019-03-06T05:26:23.046Z,31.37
2019-03-06T05:28:56.571Z,37.45
2019-03-06T05:31:29.916Z,40.38
2019-03-06T05:34:03.614Z,27.80
2019-03-06T05:36:48.437Z,25.83
2019-03-06T05:39:21.655Z,17.87
2019-03-06T05:41:56.047Z,30.77
2019-03-06T05:44:29.391Z,26.13
2019-03-06T05:47:04.257Z,20.23
2019-03-06T05:49:37.621Z,32.20
2019-03-06T05:52:11.361Z,23.03
2019-03-06T05:54:44.642Z,18.30
2019-03-06T05:57:23.771Z,22.17
2019-03-06T05:59:58.070Z,26.97
2019-03-06T06:02:35.168Z,18.97
2019-03-06T06:05:11.245Z,23.20
2019-03-06T06:07:48.181Z,23.53
2019-03-06T06:10:38.530Z,23.83
2019-03-06T06:13:13.146Z,37.90
2019-03-06T06:16:03.653Z,24.20
2019-03-06T06:18:39.686Z,21.90
2019-03-06T06:21:12.993Z,24.17
2019-03-06T06:23:49.338Z,26.47
2019-03-06T06:26:25.747Z,17.83
2019-03-06T06:28:57.218Z,36.70
2019-03-06T06:31:30.559Z,26.50
2019-03-06T06:34:03.894Z,18.87
2019-03-06T06:36:39.012Z,22.13
2019-03-06T06:39:12.264Z,25.70
2019-03-06T06:41:48.657Z,18.27
2019-03-06T06:44:22.021Z,20.90
2019-03-06T06:46:55.238Z,25.47
2019-03-06T06:49:29.421Z,28.33
2019-03-06T06:52:11.258Z,27.17
2019-03-06T06:55:14.895Z,25.17
2019-03-06T06:58:16.186Z,21.93
2019-03-06T07:01:09.857Z,21.25
2019-03-06T07:04:03.162Z,18.70
2019-03-06T07:06:36.528Z,17.30
2019-03-06T07:09:10.482Z,21.20
2019-03-06T07:11:44.822Z,32.57
2019-03-06T07:14:18.029Z,14.13
2019-03-06T07:16:53.159Z,17.00
2019-03-06T07:19:25.867Z,20.88
2019-03-06T07:21:59.306Z,20.08
2019-03-06T07:24:33.050Z,15.57
2019-03-06T07:27:06.959Z,15.90
2019-03-06T07:29:40.165Z,19.80
2019-03-06T07:32:13.615Z,17.70
2019-03-06T07:35:22.186Z,17.80
2019-03-06T07:37:55.541Z,19.50
2019-03-06T07:40:30.181Z,16.90
2019-03-06T07:43:03.758Z,25.62
2019-03-06T07:45:37.454Z,24.43
2019-03-06T07:48:11.014Z,21.43
2019-03-06T07:50:45.215Z,28.87
2019-03-06T07:53:51.597Z,23.30
2019-03-06T07:56:25.353Z,33.80
2019-03-06T07:59:00.497Z,22.32
2019-03-06T08:01:41.482Z,26.53
2019-03-06T08:04:16.488Z,26.60
2019-03-06T08:06:49.925Z,23.37
2019-03-06T08:09:24.553Z,27.37
2019-03-06T08:11:58.029Z,29.37
2019-03-06T08:14:31.574Z,31.20
2019-03-06T08:17:06.484Z,24.67
2019-03-06T08:19:40.327Z,28.77
2019-03-06T08:22:14.615Z,21.23
2019-03-06T08:24:48.048Z,28.73
2019-03-06T08:27:21.381Z,30.70
2019-03-06T08:29:55.059Z,28.73
2019-03-06T08:32:30.050Z,32.17
2019-03-06T08:35:04.615Z,30.87
2019-03-06T08:37:38.457Z,20.87
2019-03-06T08:40:13.285Z,31.70
2019-03-06T08:42:48.922Z,30.92
2019-03-06T08:45:25.577Z,32.60
2019-03-06T08:47:57.101Z,20.47
2019-03-06T08:50:30.638Z,27.17
2019-03-06T08:53:04.318Z,15.60
2019-03-06T08:55:37.845Z,18.90
2019-03-06T08:58:11.376Z,28.20
2019-03-06T09:00:45.015Z,23.23
2019-03-06T09:03:18.700Z,20.83
2019-03-06T09:05:57.730Z,24.30
2019-03-06T09:08:32.143Z,20.53
2019-03-06T09:11:07.397Z,21.47
2019-03-06T09:13:42.692Z,22.23
2019-03-06T09:16:16.238Z,24.67
2019-03-06T09:18:49.700Z,26.75
2019-03-06T09:21:23.824Z,23.50
2019-03-06T09:23:59.555Z,22.03
2019-03-06T09:26:33.715Z,25.17
2019-03-06T09:29:11.273Z,23.17
2019-03-06T09:31:45.777Z,26.03
2019-03-06T09:34:20.657Z,25.60
2019-03-06T09:36:54.262Z,17.43
2019-03-06T09:39:27.493Z,23.17
2019-03-06T09:42:01.163Z,25.67
2019-03-06T09:44:34.587Z,24.07
2019-03-06T09:47:08.804Z,24.13
2019-03-06T09:49:42.347Z,31.57
2019-03-06T09:52:18.755Z,25.40
2019-03-06T09:54:54.964Z,19.55
2019-03-06T09:57:29.494Z,29.10
2019-03-06T10:00:03.016Z,26.13
2019-03-06T10:02:36.531Z,33.10
2019-03-06T10:05:11.214Z,23.17
2019-03-06T10:07:45.763Z,25.47
2019-03-06T10:10:19.664Z,26.73
2019-03-06T10:12:53.422Z,31.68
2019-03-06T10:15:31.799Z,23.77
2019-03-06T10:18:05.156Z,21.00
2019-03-06T10:20:38.732Z,26.90
2019-03-06T10:23:15.039Z,24.57
2019-03-06T10:25:50.633Z,27.63
2019-03-06T10:28:27.955Z,30.90
2019-03-06T10:31:02.889Z,33.80
2019-03-06T10:33:36.592Z,48.20
2019-03-06T10:36:10.416Z,49.47
2019-03-06T10:38:44.569Z,45.27
2019-03-06T10:41:19.896Z,53.20
2019-03-06T10:43:54.653Z,53.60
2019-03-06T10:46:28.200Z,53.20
2019-03-06T10:49:04.110Z,52.45
2019-03-06T10:51:37.649Z,55.63
2019-03-06T10:54:11.190Z,56.80
2019-03-06T10:56:44.917Z,62.60
2019-03-06T10:59:19.262Z,53.83
2019-03-06T11:01:53.324Z,65.03
2019-03-06T11:04:28.337Z,58.42
2019-03-06T11:07:03.462Z,66.85
2019-03-06T11:09:40.425Z,53.93
2019-03-06T11:12:17.548Z,57.93
2019-03-06T11:14:57.250Z,60.97
2019-03-06T11:17:32.632Z,67.53
2019-03-06T11:20:13.373Z,71.13
2019-03-06T11:22:48.995Z,64.30
2019-03-06T11:25:28.812Z,60.23
2019-03-06T11:28:04.296Z,60.85
2019-03-06T11:30:46.401Z,69.37
2019-03-06T11:33:22.441Z,61.63
2019-03-06T11:36:01.089Z,74.63
2019-03-06T11:38:36.372Z,68.10
2019-03-06T11:41:12.465Z,74.77
2019-03-06T11:43:52.773Z,72.00
2019-03-06T11:46:28.139Z,72.87
2019-03-06T11:49:03.445Z,60.40
2019-03-06T11:51:39.456Z,67.17
2019-03-06T11:54:19.754Z,71.00
2019-03-06T11:56:55.018Z,61.45
2019-03-06T11:59:31.694Z,58.33
2019-03-06T12:02:12.421Z,63.67
2019-03-06T12:04:47.654Z,55.37
2019-03-06T12:07:23.772Z,63.13
2019-03-06T12:10:04.253Z,63.57
2019-03-06T12:12:39.841Z,58.23
2019-03-06T12:15:16.849Z,52.57
2019-03-06T12:17:51.893Z,52.40
2019-03-06T12:20:29.332Z,58.43
2019-03-06T12:23:04.896Z,46.50
2019-03-06T12:25:42.618Z,46.87
2019-03-06T12:28:20.170Z,52.83
2019-03-06T12:30:55.325Z,50.13
2019-03-06T12:33:32.561Z,48.77
2019-03-06T12:36:07.707Z,43.83
2019-03-06T12:38:42.449Z,43.77
2019-03-06T12:41:17.458Z,46.13
2019-03-06T12:43:52.779Z,50.87
2019-03-06T12:46:27.923Z,44.40
2019-03-06T12:49:04.224Z,45.40
2019-03-06T12:51:40.035Z,53.87
2019-03-06T12:54:14.532Z,67.45
2019-03-06T12:56:48.417Z,43.20
2019-03-06T12:59:22.904Z,44.27
2019-03-06T13:02:13.249Z,46.97
2019-03-06T13:04:53.469Z,48.37
2019-03-06T13:07:36.306Z,41.43
2019-03-06T13:10:17.332Z,42.67
2019-03-06T13:12:51.971Z,42.93
2019-03-06T13:15:31.423Z,49.57
2019-03-06T13:18:05.496Z,42.13
2019-03-06T13:20:39.147Z,41.63
2019-03-06T13:23:14.152Z,47.73
2019-03-06T13:25:49.913Z,51.57
2019-03-06T13:28:26.215Z,48.97
2019-03-06T13:30:59.872Z,40.53
2019-03-06T13:33:34.686Z,44.27
2019-03-06T13:36:09.838Z,41.70
2019-03-06T13:38:44.880Z,44.80
2019-03-06T13:41:22.386Z,38.80
2019-03-06T13:43:57.148Z,44.27
2019-03-06T13:46:37.717Z,40.43
2019-03-06T13:49:12.346Z,42.50
2019-03-06T13:51:47.118Z,41.07
2019-03-06T13:54:23.738Z,44.90
2019-03-06T13:56:59.175Z,38.43
2019-03-06T13:59:41.087Z,48.78
2019-03-06T14:02:16.991Z,44.40
2019-03-06T14:04:52.232Z,43.00
2019-03-06T14:07:30.039Z,40.43
2019-03-06T14:16:04.120Z,46.37
2019-03-06T14:18:39.833Z,38.27
2019-03-06T14:21:14.076Z,53.70
2019-03-06T14:23:48.066Z,45.17
2019-03-06T14:26:22.531Z,46.60
2019-03-06T14:28:56.839Z,46.97
2019-03-06T14:31:37.253Z,45.57
2019-03-06T14:34:10.343Z,51.63
2019-03-06T14:36:46.482Z,39.27
2019-03-06T14:39:31.344Z,46.33
2019-03-06T14:42:05.604Z,44.87
2019-03-06T14:44:40.060Z,42.53
2019-03-06T14:47:16.634Z,43.03
2019-03-06T14:49:50.898Z,49.03
2019-03-06T14:52:29.523Z,46.80
2019-03-06T14:55:04.445Z,40.70
2019-03-06T14:57:38.789Z,49.07
2019-03-06T15:00:17.120Z,47.08
2019-03-06T15:02:50.911Z,49.90
2019-03-06T15:05:24.291Z,50.03
2019-03-06T15:07:58.287Z,55.20
2019-03-06T15:10:32.342Z,51.33
2019-03-06T15:13:06.994Z,50.53
2019-03-06T15:15:42.452Z,60.20
2019-03-06T15:18:16.464Z,54.90
2019-03-06T15:20:50.686Z,61.33
2019-03-06T15:23:26.305Z,60.27
2019-03-06T15:26:00.009Z,58.43
2019-03-06T15:28:33.954Z,67.20
2019-03-06T15:31:09.404Z,55.77
2019-03-06T15:33:42.132Z,65.17
2019-03-06T15:36:15.473Z,65.87
2019-03-06T15:38:49.916Z,66.70
2019-03-06T15:41:23.481Z,73.13
2019-03-06T15:43:56.860Z,63.10
2019-03-06T15:46:30.354Z,67.00
2019-03-06T15:49:03.633Z,68.10
2019-03-06T15:51:37.896Z,71.47
2019-03-06T15:54:12.345Z,71.17
2019-03-06T15:56:46.172Z,76.20
2019-03-06T15:59:19.798Z,68.72
2019-03-06T16:01:53.526Z,70.40
2019-03-06T16:04:27.337Z,70.52
2019-03-06T16:07:01.944Z,87.80
2019-03-06T16:09:37.455Z,64.00
2019-03-06T16:12:12.339Z,69.67
2019-03-06T16:14:47.071Z,94.40
2019-03-06T16:17:21.315Z,90.83
2019-03-06T16:19:54.831Z,68.00
2019-03-06T16:22:29.295Z,80.93
2019-03-06T16:25:03.053Z,69.27
2019-03-06T16:27:37.777Z,72.37
2019-03-06T16:30:24.740Z,75.50
2019-03-06T16:32:58.283Z,67.60
2019-03-06T16:35:31.855Z,69.03
2019-03-06T16:38:06.625Z,83.67
2019-03-06T16:40:41.279Z,81.77
2019-03-06T16:43:16.471Z,85.97
2019-03-06T16:45:51.282Z,78.50
2019-03-06T16:48:26.015Z,84.00
2019-03-06T16:51:00.614Z,77.27
2019-03-06T16:53:35.302Z,84.30
2019-03-06T16:56:10.203Z,87.70
2019-03-06T16:58:45.841Z,76.10
2019-03-06T17:01:20.043Z,81.30
2019-03-06T17:03:55.828Z,80.13
2019-03-06T17:06:30.030Z,77.87
2019-03-06T17:09:05.295Z,78.35
2019-03-06T17:11:41.637Z,83.63
2019-03-06T17:14:16.226Z,80.57
2019-03-06T17:16:50.180Z,86.67
2019-03-06T17:19:24.481Z,80.20
2019-03-06T17:21:58.859Z,81.10
2019-03-06T17:24:34.826Z,78.20
2019-03-06T17:27:09.259Z,80.43
2019-03-06T17:29:47.650Z,82.97
2019-03-06T17:32:22.615Z,84.60
2019-03-06T17:34:58.047Z,96.07
2019-03-06T17:37:32.233Z,89.07
2019-03-06T17:40:07.658Z,86.80
2019-03-06T17:42:42.512Z,84.23
2019-03-06T17:45:17.844Z,81.67
2019-03-06T17:47:52.596Z,88.67
2019-03-06T17:50:31.449Z,86.90
2019-03-06T17:53:05.898Z,80.23
2019-03-06T17:55:39.943Z,78.50
2019-03-06T17:58:13.887Z,81.07
2019-03-06T18:00:47.561Z,78.00
2019-03-06T18:03:21.067Z,83.63
2019-03-06T18:05:59.243Z,74.43
2019-03-06T18:08:32.986Z,76.83
2019-03-06T18:11:06.564Z,81.47
2019-03-06T18:13:40.892Z,89.63
2019-03-06T18:16:14.440Z,76.17
2019-03-06T18:18:47.730Z,82.17
2019-03-06T18:21:21.920Z,76.75
2019-03-06T18:23:55.429Z,71.43
2019-03-06T18:26:28.606Z,69.40
2019-03-06T18:29:02.109Z,69.03
2019-03-06T18:31:37.024Z,66.30
2019-03-06T18:34:13.024Z,70.17
2019-03-06T18:36:46.904Z,75.57
2019-03-06T18:39:22.634Z,62.37
2019-03-06T18:41:57.354Z,77.73
2019-03-06T18:44:33.282Z,69.20
2019-03-06T18:47:10.246Z,70.17
2019-03-06T18:49:42.926Z,72.80
2019-03-06T18:52:19.642Z,67.77
2019-03-06T18:54:56.471Z,79.32
2019-03-06T18:57:30.310Z,72.57
2019-03-06T19:00:06.145Z,75.40
2019-03-06T19:02:40.872Z,70.37
2019-03-06T19:05:15.088Z,69.27
2019-03-06T19:07:48.603Z,74.97
2019-03-06T19:10:23.741Z,83.07
2019-03-06T19:12:59.942Z,76.57
2019-03-06T19:15:34.824Z,73.33
2019-03-06T19:18:08.498Z,70.13
2019-03-06T19:20:41.835Z,73.70
2019-03-06T19:23:15.649Z,70.78
2019-03-06T19:25:49.059Z,75.10
2019-03-06T19:28:22.376Z,75.97
2019-03-06T19:30:56.068Z,77.90
2019-03-06T19:33:29.299Z,77.43
2019-03-06T19:36:02.820Z,72.03
2019-03-06T19:38:36.038Z,84.20
2019-03-06T19:41:09.560Z,72.87
2019-03-06T19:43:42.954Z,84.33
2019-03-06T19:46:16.585Z,77.23
2019-03-06T19:48:49.798Z,82.90
2019-03-06T19:51:23.142Z,77.97
2019-03-06T19:53:57.532Z,81.15
2019-03-06T19:56:30.902Z,79.87
2019-03-06T19:59:04.261Z,82.43
2019-03-06T20:01:38.034Z,72.33
2019-03-06T20:04:11.880Z,75.83
2019-03-06T20:06:45.740Z,74.07
2019-03-06T20:09:29.245Z,81.10
2019-03-06T20:12:03.154Z,67.37
2019-03-06T20:14:38.717Z,75.80
2019-03-06T20:17:12.628Z,78.93
2019-03-06T20:19:49.227Z,72.43
2019-03-06T20:22:23.988Z,82.77
2019-03-06T20:24:57.710Z,71.60
2019-03-06T20:27:31.553Z,72.47
2019-03-06T20:30:06.177Z,63.72
2019-03-06T20:32:39.821Z,73.83
2019-03-06T20:35:13.978Z,72.23
2019-03-06T20:37:47.979Z,74.67
2019-03-06T20:40:22.743Z,72.57
2019-03-06T20:42:56.954Z,70.43
2019-03-06T20:45:34.423Z,70.78
2019-03-06T20:48:06.796Z,59.82
2019-03-06T20:50:41.083Z,64.72
2019-03-06T20:53:17.390Z,65.32
2019-03-06T20:55:50.158Z,59.67
2019-03-06T20:58:25.460Z,65.40
2019-03-06T21:04:02.782Z,70.17
2019-03-06T21:06:36.535Z,63.03
2019-03-06T21:09:11.890Z,64.83
2019-03-06T21:11:45.640Z,58.47
2019-03-06T21:14:19.358Z,62.50
2019-03-06T21:16:54.882Z,67.90
2019-03-06T21:19:28.442Z,58.70
2019-03-06T21:22:23.203Z,55.27
2019-03-06T21:24:36.760Z,56.40
2019-03-06T21:27:11.474Z,51.60
2019-03-06T21:29:46.111Z,54.60
2019-03-06T21:32:19.805Z,63.03
2019-03-06T21:34:53.783Z,62.40
2019-03-06T21:37:27.600Z,55.67
2019-03-06T21:40:04.333Z,57.90
2019-03-06T21:42:38.032Z,53.80
2019-03-06T21:45:13.960Z,58.77
2019-03-06T21:47:48.942Z,67.57
2019-03-06T21:50:23.173Z,66.67
2019-03-06T21:52:56.848Z,56.70
2019-03-06T21:55:30.581Z,54.77
2019-03-06T21:58:04.427Z,56.50
2019-03-06T22:00:54.969Z,51.00
2019-03-06T22:03:27.661Z,54.03
2019-03-06T22:06:02.872Z,52.47
2019-03-06T22:08:36.535Z,65.50
2019-03-06T22:11:10.247Z,56.37
2019-03-06T22:13:43.964Z,62.23
2019-03-06T22:16:46.316Z,53.83
2019-03-06T22:18:58.207Z,69.23
2019-03-06T22:21:33.359Z,57.80
2019-03-06T22:24:08.096Z,54.43
2019-03-06T22:26:41.844Z,62.73
2019-03-06T22:29:15.465Z,53.27
2019-03-06T22:31:50.024Z,51.87
2019-03-06T22:34:23.740Z,85.90
2019-03-06T22:37:00.065Z,62.43
2019-03-06T22:39:33.893Z,63.63
2019-03-06T22:42:07.662Z,61.50
2019-03-06T22:44:41.317Z,61.67
2019-03-06T22:47:15.390Z,58.37
2019-03-06T22:49:49.477Z,69.67
2019-03-06T22:52:32.243Z,79.37
2019-03-06T22:55:12.359Z,61.20
2019-03-06T22:57:43.726Z,64.77
2019-03-06T23:00:36.447Z,66.20
2019-03-06T23:03:10.766Z,56.63
2019-03-06T23:05:44.531Z,57.43
2019-03-06T23:08:18.385Z,61.00
2019-03-06T23:10:52.784Z,58.63
2019-03-06T23:13:27.467Z,78.27
2019-03-06T23:16:03.449Z,65.63
2019-03-06T23:18:37.327Z,63.80
2019-03-06T23:21:11.040Z,81.03
2019-03-06T23:23:45.165Z,82.53
2019-03-06T23:26:18.903Z,68.00
2019-03-06T23:28:52.730Z,71.97
2019-03-06T23:31:27.088Z,87.37
2019-03-06T23:34:01.438Z,76.12
2019-03-06T23:36:37.416Z,81.87
2019-03-06T23:39:13.670Z,78.77
2019-03-06T23:41:47.579Z,87.42
2019-03-06T23:44:21.616Z,76.30
2019-03-06T23:46:57.681Z,88.70
2019-03-06T23:49:31.659Z,87.73
2019-03-06T23:52:05.498Z,84.57
2019-03-06T23:54:51.830Z,85.87
2019-03-06T23:57:25.700Z,92.47
2019-03-06T23:59:59.551Z,83.37
